Monday, September 24, 2018, 10:04 PM GMT
Back to Local

CYWA, Petawawa, Ont.

Location: , , Canada Lat: 45.95
Local Time: 10:04 PM GMT (22:04 GMT) Lon: -77.317
Time Zone: GMT Elev: 426 ft

Show me the last for .
Show Decoded

2018-09-24 21:00 METAR CYWA 242100Z AUTO 14009G15KT 9SM CLR 14/06 A3038 RMK SLP293 =
2018-09-24 20:00 METAR CYWA 242000Z AUTO 14010KT 9SM FEW073 14/05 A3040 RMK SLP298 =
2018-09-24 19:00 METAR CYWA 241900Z AUTO 14010KT 9SM FEW090 14/05 A3043 RMK SLP308 =
2018-09-24 18:00 METAR CYWA 241800Z AUTO 12007KT 090V180 9SM CLR 13/04 A3047 RMK SLP322 =
2018-09-24 16:00 METAR CYWA 241600Z AUTO 14010KT 9SM CLR 11/02 A3051 RMK SLP338 =
2018-09-24 15:00 METAR CYWA 241500Z AUTO 13008G15KT 9SM CLR 10/02 A3053 RMK SLP345 =
2018-09-24 14:00 METAR CYWA 241400Z AUTO 13012KT 9SM CLR 09/02 A3054 RMK SLP348 =
2018-09-24 13:00 METAR CYWA 241300Z AUTO 10008KT 060V130 9SM CLR 08/03 A3055 RMK SLP351 =
2018-09-24 12:00 METAR CYWA 241200Z AUTO 09007KT 9SM FEW035 06/03 A3054 RMK SLP346 =
2018-09-24 11:00 METAR CYWA 241100Z AUTO 09007KT 9SM SCT037 06/03 A3052 RMK SLP340 =
2018-09-24 10:00 METAR CYWA 241000Z AUTO 08008KT 060V120 9SM BKN037 OVC074 07/04 A3051 RMK SLP336
                 =
2018-09-24 09:00 METAR CYWA 240900Z AUTO 08005KT 060V120 9SM OVC041 OVC071 07/03 A3050 RMK SLP334
                 =
2018-09-24 08:00 METAR CYWA 240800Z AUTO 07007KT 9SM OVC069 07/04 A3049 RMK SLP331 =
2018-09-24 07:00 METAR CYWA 240700Z AUTO 09006KT 060V120 9SM OVC066 07/03 A3048 RMK SLP328 =
2018-09-24 06:00 METAR CYWA 240600Z AUTO 09004KT 060V120 9SM OVC060 07/03 A3048 RMK SLP327 =
2018-09-24 05:00 METAR CYWA 240500Z AUTO 10005KT 9SM OVC060 OVC079 07/04 A3047 RMK SLP322 =
2018-09-24 04:00 METAR CYWA 240400Z AUTO 09003KT 050V110 9SM BKN065 07/04 A3047 RMK SLP322 =
2018-09-24 03:00 METAR CYWA 240300Z AUTO 07002KT 9SM BKN061 07/03 A3046 RMK SLP319 =
2018-09-24 02:00 METAR CYWA 240200Z AUTO 04003KT 010V070 9SM OVC055 07/04 A3044 RMK SLP314 =
2018-09-24 01:00 METAR CYWA 240100Z AUTO 05008KT 360V140 9SM FEW019 OVC049 07/03 A3043 RMK SLP311
                 =
2018-09-24 00:09 METAR CYWA 240009Z AUTO 04005KT 360V090 9SM FEW017 BKN035 OVC072 07/04 A3042 =
2018-09-24 00:00 METAR CYWA 240000Z AUTO 03003KT 9SM BKN015 OVC035 07/05 A3042 RMK SLP307 =
2018-09-23 23:25 METAR CYWA 232325Z AUTO 30004KT 9SM OVC015 OVC033 OVC053 06/05 A3041 =
2018-09-23 23:00 METAR CYWA 232300Z AUTO 33003KT 9SM BKN010 OVC044 06/05 A3040 RMK SLP300 =
2018-09-23 22:51 METAR CYWA 232251Z AUTO 32004KT 8SM BKN012 BKN029 OVC041 06/06 A3040 =
2018-09-23 22:11 METAR CYWA 232211Z AUTO 36006KT 3SM DZ OVC012 OVC029 OVC042 06/05 A3039 =

Support USWX by starting your Amazon purchase here.